Terminal Aerodrome Forecast
Issued by NWS Charleston, WV

Home | Current Version | Previous Version | Text Only | Print | Product List | Glossary On
Versions: 1 2 3 4 5 6 7 8 9 10 11 12 13 14 15 16 17 18 19 20 21 22 23 24 25 26 27 28
000
FTUS41 KRLX 022332
TAFHTS
TAF
KHTS 022332Z 0300/0324 06004KT P6SM BKN012
     FM030200 VRB03KT P6SM BKN015
     FM030400 VRB03KT 5SM BR BKN020
     FM030600 00000KT 3SM BR BKN010
     FM031400 00000KT 5SM BR BKN020
     FM031600 00000KT P6SM BKN025
     FM031800 00000KT P6SM BKN035=

USA.gov is the U.S. government's official web portal to all federal, state and local government web resources and services.